Time;durP1;ratioP1;P1;durP2;ratioP2;P2;SDS_P1;SDS_P2;PMS_P1;PMS_P2;Temp;Humidity;BMP_temperature;BMP_pressure;BME280_temperature;BME280_humidity;BME280_pressure;Samples;Min_cycle;Max_cycle;Signal;HPM_P1;HPM_P2
2022/09/18 00:02:22;;;;;;;0.50;0.20;;;11.80;82.20;;;;;;4880481;29;20037;-77
2022/09/18 00:04:48;;;;;;;0.20;0.20;;;11.80;82.30;;;;;;4880543;29;20049;-76
2022/09/18 00:07:14;;;;;;;0.50;0.20;;;11.80;82.30;;;;;;4879408;29;20041;-76
2022/09/18 00:09:40;;;;;;;0.20;0.20;;;11.80;82.30;;;;;;4896615;29;20048;-76
2022/09/18 00:12:05;;;;;;;0.40;0.30;;;11.90;82.40;;;;;;4896686;29;20501;-75
2022/09/18 00:14:31;;;;;;;1.45;0.25;;;11.90;82.40;;;;;;4879874;29;20041;-77
2022/09/18 00:16:57;;;;;;;0.20;0.20;;;11.80;82.30;;;;;;4897199;29;20029;-78
2022/09/18 00:19:23;;;;;;;0.47;0.20;;;11.90;82.40;;;;;;4864295;29;20079;-78
2022/09/18 00:21:50;;;;;;;1.02;0.20;;;11.90;82.40;;;;;;4863725;29;20403;-79
2022/09/18 00:24:17;;;;;;;0.28;0.20;;;11.90;82.50;;;;;;4896599;29;20032;-77
2022/09/18 00:26:44;;;;;;;0.20;0.20;;;11.90;82.50;;;;;;4896751;29;20037;-77
2022/09/18 00:29:10;;;;;;;0.30;0.25;;;11.90;82.50;;;;;;4896637;29;20088;-76
2022/09/18 00:31:37;;;;;;;0.55;0.10;;;11.90;82.60;;;;;;4896108;29;20127;-76
2022/09/18 00:34:07;;;;;;;0.28;0.22;;;11.90;82.60;;;;;;4896291;29;20127;-75
2022/09/18 00:36:34;;;;;;;0.85;0.20;;;11.90;82.60;;;;;;4896792;29;20093;-76
2022/09/18 00:39:01;;;;;;;0.10;0.10;;;12.00;82.70;;;;;;4879606;29;20036;-77
2022/09/18 00:41:31;;;;;;;0.10;0.10;;;12.00;82.70;;;;;;4896132;29;20071;-76
2022/09/18 00:44:30;;;;;;;0.43;0.28;;;12.00;82.80;;;;;;4896295;29;20036;-77
2022/09/18 00:47:21;;;;;;;0.60;0.30;;;12.10;82.90;;;;;;4894202;29;20495;-78
2022/09/18 00:50:05;;;;;;;0.65;0.20;;;12.00;82.90;;;;;;4866659;29;20036;-76
2022/09/18 00:53:01;;;;;;;0.73;0.20;;;12.00;82.90;;;;;;4879502;29;20037;-75
2022/09/18 00:55:31;;;;;;;0.17;0.17;;;12.00;82.90;;;;;;4896211;29;20072;-76
2022/09/18 00:58:02;;;;;;;0.38;0.20;;;12.00;82.90;;;;;;4878970;29;20554;-76
2022/09/18 01:00:28;;;;;;;0.45;0.20;;;12.00;82.90;;;;;;4896369;29;20059;-76
2022/09/18 01:02:57;;;;;;;1.20;0.20;;;12.00;83.00;;;;;;4896532;29;20048;-79
2022/09/18 01:05:57;;;;;;;1.30;0.30;;;12.10;83.00;;;;;;4879641;29;20041;-78
2022/09/18 01:08:44;;;;;;;0.63;0.20;;;12.00;83.10;;;;;;4880005;29;20136;-78
2022/09/18 01:11:25;;;;;;;0.35;0.20;;;12.00;83.00;;;;;;4894836;29;20033;-78
2022/09/18 01:14:14;;;;;;;0.75;0.20;;;12.00;83.10;;;;;;4882063;29;20120;-76
2022/09/18 01:17:05;;;;;;;0.60;0.20;;;12.10;83.20;;;;;;4899191;29;20033;-76
2022/09/18 01:20:05;;;;;;;0.75;0.20;;;12.00;83.10;;;;;;4882135;29;20064;-77
2022/09/18 01:23:02;;;;;;;0.10;0.10;;;12.10;83.30;;;;;;4885148;29;20041;-78
2022/09/18 01:25:49;;;;;;;0.28;0.15;;;12.00;83.20;;;;;;4853593;29;20104;-78
2022/09/18 01:28:37;;;;;;;0.73;0.20;;;12.00;83.20;;;;;;4866481;29;20072;-79
2022/09/18 01:31:10;;;;;;;0.30;0.20;;;12.00;83.30;;;;;;4899416;29;20036;-78
2022/09/18 01:33:45;;;;;;;0.45;0.20;;;12.10;83.40;;;;;;4899404;29;20088;-77
2022/09/18 01:36:15;;;;;;;0.10;0.10;;;12.00;83.30;;;;;;4899366;29;20711;-77
2022/09/18 01:38:48;;;;;;;0.93;0.20;;;12.10;83.50;;;;;;4899148;29;20483;-78
2022/09/18 01:41:21;;;;;;;0.20;0.20;;;12.00;83.50;;;;;;4898511;29;20479;-78
2022/09/18 01:43:57;;;;;;;0.35;0.13;;;12.10;83.60;;;;;;4899185;29;20056;-78
2022/09/18 01:46:24;;;;;;;0.10;0.10;;;12.10;83.60;;;;;;4898863;29;20436;-78
2022/09/18 01:48:56;;;;;;;0.25;0.20;;;12.10;84.20;;;;;;4898584;29;20048;-76
2022/09/18 01:51:27;;;;;;;0.10;0.10;;;12.00;83.60;;;;;;4898937;29;20108;-77
2022/09/18 01:54:00;;;;;;;0.20;0.20;;;12.00;83.70;;;;;;4866857;29;20109;-77
2022/09/18 01:56:30;;;;;;;0.20;0.20;;;12.00;83.70;;;;;;4865795;29;20033;-75
2022/09/18 01:59:01;;;;;;;0.10;0.10;;;12.00;83.70;;;;;;4898710;29;20044;-77
2022/09/18 02:01:31;;;;;;;0.47;0.28;;;12.00;83.70;;;;;;4866687;29;20048;-76
2022/09/18 02:04:01;;;;;;;0.40;0.20;;;12.00;83.80;;;;;;4882285;29;20036;-76
2022/09/18 02:06:32;;;;;;;0.17;0.10;;;12.10;83.80;;;;;;4865568;29;20041;-76
2022/09/18 02:08:59;;;;;;;0.10;0.10;;;12.00;83.80;;;;;;4881139;29;20305;-76
2022/09/18 02:11:25;;;;;;;0.10;0.10;;;12.10;83.80;;;;;;4882123;29;20076;-76
2022/09/18 02:14:05;;;;;;;0.95;0.20;;;12.00;83.90;;;;;;4898855;29;20500;-75
2022/09/18 02:16:42;;;;;;;0.35;0.20;;;12.00;83.90;;;;;;4881369;29;20056;-76
2022/09/18 02:19:21;;;;;;;0.10;0.10;;;12.10;84.10;;;;;;4898279;29;20411;-76
2022/09/18 02:21:48;;;;;;;0.10;0.10;;;12.00;84.00;;;;;;4881202;29;20127;-76
2022/09/18 02:24:17;;;;;;;0.22;0.13;;;12.10;84.00;;;;;;4898025;29;20047;-75
2022/09/18 02:26:46;;;;;;;0.50;0.20;;;12.00;84.10;;;;;;4880785;29;20445;-75
2022/09/18 02:29:14;;;;;;;0.25;0.10;;;12.00;84.10;;;;;;4864897;29;20132;-76
2022/09/18 02:31:40;;;;;;;0.20;0.20;;;12.00;84.20;;;;;;4897968;29;20472;-76
2022/09/18 02:34:08;;;;;;;0.98;0.28;;;12.10;84.40;;;;;;4897752;29;20032;-76
2022/09/18 02:36:50;;;;;;;0.73;0.30;;;11.90;84.40;;;;;;4881150;29;20399;-76
2022/09/18 02:39:51;;;;;;;0.55;0.20;;;11.90;84.50;;;;;;4881441;29;20037;-75
2022/09/18 02:42:40;;;;;;;1.23;0.25;;;12.00;84.60;;;;;;4883790;29;20037;-75
2022/09/18 02:45:33;;;;;;;0.10;0.10;;;11.90;84.60;;;;;;4897683;29;20041;-76
2022/09/18 02:48:15;;;;;;;0.20;0.20;;;12.10;84.80;;;;;;4884015;29;20488;-76
2022/09/18 02:51:06;;;;;;;0.13;0.10;;;11.90;85.30;;;;;;4865618;29;20129;-76
2022/09/18 02:53:49;;;;;;;0.20;0.20;;;11.90;84.80;;;;;;4881044;29;20029;-76
2022/09/18 02:56:36;;;;;;;0.28;0.10;;;11.90;84.70;;;;;;4897868;29;20040;-76
2022/09/18 02:59:10;;;;;;;0.82;0.20;;;11.90;84.70;;;;;;4896854;29;20123;-76
2022/09/18 03:01:40;;;;;;;0.10;0.10;;;11.90;84.80;;;;;;4880708;29;20044;-75
2022/09/18 03:04:11;;;;;;;0.25;0.20;;;11.80;84.70;;;;;;4880922;29;20553;-76
2022/09/18 03:06:37;;;;;;;0.28;0.20;;;11.90;84.90;;;;;;4865805;29;20076;-75
2022/09/18 03:09:03;;;;;;;0.32;0.20;;;11.90;84.90;;;;;;4880935;29;20064;-76
2022/09/18 03:11:29;;;;;;;0.10;0.10;;;11.90;84.90;;;;;;4880766;29;20041;-75
2022/09/18 03:13:54;;;;;;;0.10;0.10;;;11.90;85.00;;;;;;4897659;29;20029;-75
2022/09/18 03:16:20;;;;;;;1.10;0.20;;;12.00;85.00;;;;;;4897439;29;20041;-76
2022/09/18 03:18:46;;;;;;;0.50;0.20;;;11.90;85.00;;;;;;4880589;29;20072;-75
2022/09/18 03:21:11;;;;;;;0.22;0.20;;;11.90;85.10;;;;;;4880510;29;20048;-76
2022/09/18 03:23:37;;;;;;;0.17;0.13;;;11.90;85.00;;;;;;4897362;29;20041;-75
2022/09/18 03:26:03;;;;;;;0.10;0.10;;;12.00;85.20;;;;;;4864968;29;20033;-75
2022/09/18 03:28:31;;;;;;;0.65;0.25;;;12.00;85.20;;;;;;4880765;29;20113;-75
2022/09/18 03:30:56;;;;;;;0.17;0.15;;;12.00;85.20;;;;;;4897215;29;20399;-75
2022/09/18 03:33:22;;;;;;;0.17;0.17;;;12.00;85.30;;;;;;4880761;29;20036;-75
2022/09/18 03:35:48;;;;;;;0.43;0.10;;;12.00;85.30;;;;;;4879536;29;20547;-76
2022/09/18 03:38:14;;;;;;;1.08;0.20;;;12.00;85.30;;;;;;4881143;29;20057;-76
2022/09/18 03:40:44;;;;;;;0.70;0.30;;;12.00;85.30;;;;;;4880142;29;20108;-76
2022/09/18 03:43:10;;;;;;;0.10;0.10;;;11.90;85.40;;;;;;4897278;29;20119;-76
2022/09/18 03:45:35;;;;;;;0.70;0.20;;;11.90;85.50;;;;;;4880378;29;20089;-76
2022/09/18 03:48:02;;;;;;;0.47;0.25;;;11.90;85.50;;;;;;4880126;29;20052;-76
2022/09/18 03:50:28;;;;;;;0.25;0.10;;;11.90;85.60;;;;;;4880632;29;20123;-76
2022/09/18 03:52:54;;;;;;;0.25;0.17;;;11.90;85.60;;;;;;4880275;29;20112;-76
2022/09/18 03:55:21;;;;;;;0.10;0.10;;;11.90;85.60;;;;;;4897051;29;20037;-76
2022/09/18 03:57:47;;;;;;;0.80;0.20;;;11.90;85.60;;;;;;4897319;29;20104;-76
2022/09/18 04:00:14;;;;;;;1.23;0.20;;;11.90;85.60;;;;;;4880217;29;20041;-75
2022/09/18 04:02:40;;;;;;;0.30;0.10;;;11.90;85.70;;;;;;4896846;29;20049;-76
2022/09/18 04:05:06;;;;;;;0.75;0.20;;;11.90;85.70;;;;;;4897046;29;20041;-76
2022/09/18 04:07:32;;;;;;;0.10;0.10;;;11.90;85.80;;;;;;4897289;29;20113;-77
2022/09/18 04:09:58;;;;;;;0.30;0.20;;;11.90;85.80;;;;;;4897381;29;20044;-76
2022/09/18 04:12:24;;;;;;;0.55;0.20;;;11.90;85.90;;;;;;4896733;29;20116;-76
2022/09/18 04:14:49;;;;;;;0.13;0.10;;;11.90;85.90;;;;;;4880654;29;20433;-76
2022/09/18 04:17:15;;;;;;;0.10;0.10;;;11.90;85.90;;;;;;4896974;29;20036;-76
2022/09/18 04:19:41;;;;;;;0.45;0.10;;;11.90;85.90;;;;;;4896884;29;20476;-76
2022/09/18 04:22:07;;;;;;;0.35;0.10;;;11.80;85.90;;;;;;4865131;29;20037;-76
2022/09/18 04:24:34;;;;;;;1.00;0.30;;;11.90;86.10;;;;;;4896772;29;20040;-76
2022/09/18 04:27:00;;;;;;;0.10;0.10;;;11.80;86.00;;;;;;4864537;29;20574;-76
2022/09/18 04:29:26;;;;;;;0.43;0.25;;;11.80;86.10;;;;;;4879648;29;20060;-76
2022/09/18 04:31:51;;;;;;;0.22;0.10;;;11.80;86.10;;;;;;4896835;29;20052;-75
2022/09/18 04:34:17;;;;;;;0.38;0.15;;;11.80;86.10;;;;;;4879844;29;20037;-76
2022/09/18 04:36:43;;;;;;;0.10;0.10;;;11.80;86.20;;;;;;4896787;29;20032;-76
2022/09/18 04:39:08;;;;;;;0.10;0.10;;;11.80;86.30;;;;;;4896966;29;20032;-76
2022/09/18 04:41:34;;;;;;;0.68;0.20;;;11.70;86.30;;;;;;4896405;29;20080;-75
2022/09/18 04:44:00;;;;;;;0.80;0.10;;;11.80;86.40;;;;;;4879302;29;20044;-75
2022/09/18 04:46:26;;;;;;;0.35;0.20;;;11.80;86.40;;;;;;4896348;29;20399;-76
2022/09/18 04:48:52;;;;;;;0.65;0.30;;;11.80;86.40;;;;;;4879139;29;20052;-76
2022/09/18 04:51:18;;;;;;;0.20;0.20;;;11.80;86.40;;;;;;4896265;29;20098;-76
2022/09/18 04:53:44;;;;;;;0.75;0.20;;;11.80;86.40;;;;;;4879759;29;20037;-75
2022/09/18 04:56:10;;;;;;;0.10;0.10;;;11.80;86.50;;;;;;4879853;29;20513;-75
2022/09/18 04:58:35;;;;;;;0.20;0.20;;;11.70;86.50;;;;;;4896844;29;20041;-76
2022/09/18 05:01:02;;;;;;;0.17;0.17;;;11.80;86.50;;;;;;4896375;29;20041;-76
2022/09/18 05:03:27;;;;;;;0.20;0.20;;;11.70;86.50;;;;;;4896564;29;20040;-75
2022/09/18 05:05:53;;;;;;;0.10;0.10;;;11.70;86.50;;;;;;4896827;29;20029;-76
2022/09/18 05:08:20;;;;;;;0.77;0.20;;;11.70;86.50;;;;;;4896337;29;20057;-76
2022/09/18 05:10:46;;;;;;;0.10;0.10;;;11.70;86.60;;;;;;4896500;29;20040;-76
2022/09/18 05:13:12;;;;;;;0.30;0.22;;;11.80;86.60;;;;;;4896238;29;20443;-76
2022/09/18 05:15:37;;;;;;;0.65;0.20;;;11.70;86.60;;;;;;4896743;29;20123;-77
2022/09/18 05:18:05;;;;;;;0.10;0.10;;;11.70;86.60;;;;;;4879823;29;20048;-77
2022/09/18 05:20:33;;;;;;;0.20;0.20;;;11.70;86.60;;;;;;4864240;29;20119;-77
2022/09/18 05:22:59;;;;;;;0.65;0.22;;;11.70;86.60;;;;;;4896578;29;20064;-77
2022/09/18 05:25:27;;;;;;;0.10;0.10;;;11.70;86.70;;;;;;4896049;29;20485;-77
2022/09/18 05:27:58;;;;;;;1.10;0.30;;;11.70;86.70;;;;;;4879575;29;20051;-77
2022/09/18 05:30:25;;;;;;;0.20;0.20;;;11.70;86.70;;;;;;4896339;29;20710;-78
2022/09/18 05:32:56;;;;;;;0.20;0.20;;;11.60;86.70;;;;;;4879317;29;20045;-78
2022/09/18 05:35:22;;;;;;;;;;;11.70;86.80;;;;;;4864357;29;20041;-77
2022/09/18 05:37:51;;;;;;;0.10;0.10;;;11.60;86.70;;;;;;4895745;29;19907;-78
2022/09/18 05:40:19;;;;;;;0.75;0.20;;;11.70;86.70;;;;;;4879922;29;20491;-77
2022/09/18 05:42:46;;;;;;;0.10;0.10;;;11.60;86.70;;;;;;4877772;29;20440;-77
2022/09/18 05:45:13;;;;;;;0.15;0.15;;;11.60;86.70;;;;;;4879090;29;20055;-76
2022/09/18 05:47:40;;;;;;;0.10;0.10;;;11.70;86.80;;;;;;4878896;29;20045;-76
2022/09/18 05:50:07;;;;;;;0.35;0.13;;;11.70;86.80;;;;;;4848223;29;20036;-78
2022/09/18 05:52:33;;;;;;;0.65;0.22;;;11.70;86.90;;;;;;4878252;29;20037;-76
2022/09/18 05:54:59;;;;;;;0.10;0.10;;;11.70;86.90;;;;;;4879100;29;20128;-77
2022/09/18 05:57:25;;;;;;;0.13;0.13;;;11.70;86.90;;;;;;4879122;29;20036;-78
2022/09/18 05:59:50;;;;;;;0.77;0.20;;;11.70;86.90;;;;;;4881699;29;20033;-78
2022/09/18 06:02:16;;;;;;;0.10;0.10;;;11.70;86.90;;;;;;4898924;29;20031;-79
2022/09/18 06:04:42;;;;;;;0.10;0.10;;;11.70;86.90;;;;;;4882091;29;20124;-77
2022/09/18 06:07:08;;;;;;;0.10;0.10;;;11.80;87.00;;;;;;4881936;29;20394;-77
2022/09/18 06:09:34;;;;;;;0.13;0.10;;;11.80;87.00;;;;;;4882151;29;20133;-78
2022/09/18 06:11:59;;;;;;;0.10;0.10;;;11.80;87.00;;;;;;4851078;29;20025;-78
2022/09/18 06:14:25;;;;;;;0.73;0.22;;;11.80;87.00;;;;;;4866195;29;20037;-78
2022/09/18 06:16:51;;;;;;;0.47;0.20;;;11.80;87.00;;;;;;4881764;29;20484;-78
2022/09/18 06:19:16;;;;;;;0.30;0.17;;;11.80;86.90;;;;;;4898427;29;20037;-77
2022/09/18 06:21:42;;;;;;;0.10;0.10;;;11.80;87.00;;;;;;4898727;29;20045;-78
2022/09/18 06:24:08;;;;;;;0.25;0.15;;;11.80;87.00;;;;;;4898953;29;20040;-77
2022/09/18 06:26:34;;;;;;;0.00;0.00;;;11.80;87.00;;;;;;4881807;29;20127;-78
2022/09/18 06:29:00;;;;;;;0.10;0.10;;;11.80;87.00;;;;;;4898948;29;20044;-77
2022/09/18 06:31:26;;;;;;;0.10;0.10;;;11.80;87.00;;;;;;4865575;29;20058;-77
2022/09/18 06:33:51;;;;;;;0.10;0.10;;;11.80;87.00;;;;;;4898628;29;20029;-77
2022/09/18 06:36:17;;;;;;;0.10;0.10;;;11.80;87.00;;;;;;4881320;29;20123;-78
2022/09/18 06:38:43;;;;;;;0.10;0.10;;;11.90;87.00;;;;;;4881050;29;20112;-78
2022/09/18 06:41:09;;;;;;;0.35;0.20;;;11.90;86.90;;;;;;4881791;29;20051;-78
2022/09/18 06:43:35;;;;;;;0.38;0.17;;;11.90;86.90;;;;;;4881834;29;20068;-77
2022/09/18 06:46:01;;;;;;;0.52;0.13;;;11.80;86.90;;;;;;4881451;29;20040;-78
2022/09/18 06:48:28;;;;;;;0.10;0.10;;;11.80;87.00;;;;;;4881231;29;20483;-77
2022/09/18 06:50:56;;;;;;;0.88;0.20;;;11.80;87.00;;;;;;4898592;29;20088;-78
2022/09/18 06:53:22;;;;;;;0.10;0.10;;;11.80;87.00;;;;;;4898305;29;20071;-77
2022/09/18 06:55:49;;;;;;;0.10;0.10;;;11.90;87.00;;;;;;4898463;29;20029;-77
2022/09/18 06:58:16;;;;;;;0.10;0.10;;;11.90;87.00;;;;;;4881764;29;20036;-77
2022/09/18 07:00:43;;;;;;;0.10;0.10;;;12.00;87.00;;;;;;4897927;29;20036;-77
2022/09/18 07:03:08;;;;;;;0.10;0.10;;;12.00;87.00;;;;;;4898190;29;20040;-77
2022/09/18 07:05:40;;;;;;;0.10;0.10;;;12.00;86.90;;;;;;4881722;29;20047;-78
2022/09/18 07:08:06;;;;;;;0.10;0.10;;;12.10;87.00;;;;;;4898453;29;20091;-78
2022/09/18 07:10:32;;;;;;;0.10;0.10;;;12.00;86.90;;;;;;4897720;29;20085;-77
2022/09/18 07:12:58;;;;;;;0.10;0.10;;;12.00;86.80;;;;;;4881655;29;20041;-77
2022/09/18 07:15:25;;;;;;;0.35;0.13;;;12.00;86.80;;;;;;4866325;29;20037;-78
2022/09/18 07:17:54;;;;;;;0.10;0.10;;;12.00;86.90;;;;;;4898425;29;20048;-77
2022/09/18 07:20:20;;;;;;;0.17;0.10;;;12.10;87.00;;;;;;4865877;29;20184;-78
2022/09/18 07:22:57;;;;;;;0.32;0.10;;;12.20;87.00;;;;;;4865404;29;20139;-78
2022/09/18 07:25:23;;;;;;;0.10;0.10;;;12.10;86.90;;;;;;4865866;29;20044;-77
2022/09/18 07:27:49;;;;;;;0.20;0.10;;;12.10;86.90;;;;;;4880848;29;20127;-78
2022/09/18 07:30:16;;;;;;;0.73;0.20;;;12.20;86.80;;;;;;4880818;29;20491;-78
2022/09/18 07:32:42;;;;;;;0.00;0.00;;;12.10;86.80;;;;;;4880778;29;20037;-77
2022/09/18 07:35:09;;;;;;;0.30;0.30;;;12.20;86.80;;;;;;4898090;29;20028;-78
2022/09/18 07:37:35;;;;;;;0.15;0.15;;;12.20;86.90;;;;;;4880494;29;20040;-77
2022/09/18 07:40:00;;;;;;;0.10;0.10;;;12.30;86.90;;;;;;4897750;29;20072;-77
2022/09/18 07:42:26;;;;;;;0.10;0.10;;;12.40;86.80;;;;;;4881047;29;20084;-77
2022/09/18 07:44:52;;;;;;;0.10;0.10;;;12.40;86.70;;;;;;4880619;29;20096;-77
2022/09/18 07:47:18;;;;;;;0.52;0.25;;;12.50;86.70;;;;;;4897533;29;20044;-77
2022/09/18 07:49:44;;;;;;;0.10;0.10;;;12.50;86.60;;;;;;4896863;29;20543;-76
2022/09/18 07:52:10;;;;;;;0.10;0.10;;;12.60;86.50;;;;;;4880580;29;20037;-77
2022/09/18 07:54:36;;;;;;;0.20;0.20;;;12.60;86.50;;;;;;4897637;29;20040;-77
2022/09/18 07:57:02;;;;;;;0.20;0.20;;;12.60;86.40;;;;;;4897344;29;20120;-77
2022/09/18 07:59:28;;;;;;;0.75;0.10;;;12.60;86.40;;;;;;4880522;29;20444;-76
2022/09/18 08:01:54;;;;;;;0.65;0.20;;;12.70;86.30;;;;;;4880494;29;20048;-76
2022/09/18 08:04:21;;;;;;;0.20;0.20;;;12.70;86.30;;;;;;4879713;29;20052;-75
2022/09/18 08:06:52;;;;;;;0.20;0.20;;;12.70;86.30;;;;;;4880637;29;20079;-76
2022/09/18 08:09:18;;;;;;;0.10;0.10;;;12.70;86.30;;;;;;4879731;29;20465;-76
2022/09/18 08:11:43;;;;;;;0.10;0.10;;;12.70;86.30;;;;;;4880721;29;20115;-76
2022/09/18 08:14:09;;;;;;;0.20;0.10;;;12.70;86.30;;;;;;4897389;29;20037;-76
2022/09/18 08:16:35;;;;;;;0.10;0.10;;;12.80;86.40;;;;;;4897240;29;20589;-76
2022/09/18 08:19:01;;;;;;;0.35;0.10;;;12.70;86.40;;;;;;4896621;29;20544;-76
2022/09/18 08:21:29;;;;;;;0.45;0.20;;;12.70;86.50;;;;;;4879139;29;20044;-77
2022/09/18 08:23:55;;;;;;;0.32;0.30;;;12.70;86.50;;;;;;4887523;29;20045;-77
2022/09/18 08:26:21;;;;;;;0.20;0.20;;;12.70;86.60;;;;;;4891708;29;20047;-77
2022/09/18 08:28:47;;;;;;;0.20;0.20;;;12.70;86.70;;;;;;4888507;29;20147;-77
2022/09/18 08:31:12;;;;;;;0.10;0.10;;;12.70;86.70;;;;;;4894249;29;20037;-77
2022/09/18 08:33:38;;;;;;;0.32;0.10;;;12.70;86.80;;;;;;4878955;29;20048;-77
2022/09/18 08:36:04;;;;;;;0.10;0.10;;;12.70;86.90;;;;;;4872768;29;20041;-77
2022/09/18 08:38:30;;;;;;;0.10;0.10;;;12.70;86.90;;;;;;4908003;29;20033;-77
2022/09/18 08:41:11;;;;;;;0.15;0.10;;;12.70;86.90;;;;;;4910740;29;20120;-77
2022/09/18 08:43:47;;;;;;;0.15;0.10;;;12.70;87.00;;;;;;4912618;29;20025;-78
2022/09/18 08:46:30;;;;;;;0.10;0.10;;;12.80;87.00;;;;;;4912240;29;20044;-77
2022/09/18 08:49:05;;;;;;;0.20;0.10;;;12.80;87.10;;;;;;4895171;29;20047;-77
2022/09/18 08:51:40;;;;;;;0.10;0.10;;;12.80;87.00;;;;;;4891832;29;20044;-77
2022/09/18 08:54:23;;;;;;;0.43;0.10;;;12.90;87.00;;;;;;4914361;29;20037;-77
2022/09/18 08:56:51;;;;;;;1.10;0.10;;;12.80;87.00;;;;;;4899440;29;20552;-76
2022/09/18 08:59:32;;;;;;;0.15;0.10;;;12.90;87.10;;;;;;4899373;29;20046;-77
2022/09/18 09:02:10;;;;;;;;;;;12.90;87.00;;;;;;4883100;29;20051;-77
2022/09/18 09:04:36;;;;;;;0.10;0.10;;;12.90;86.80;;;;;;4883661;29;20289;-77
2022/09/18 09:07:18;;;;;;;0.85;0.20;;;12.90;86.80;;;;;;4896465;29;20080;-77
2022/09/18 09:10:03;;;;;;;1.15;0.20;;;12.90;86.90;;;;;;4892199;29;20055;-78
2022/09/18 09:12:50;;;;;;;0.13;0.13;;;12.90;87.00;;;;;;4910662;29;20032;-77
2022/09/18 09:15:31;;;;;;;0.38;0.10;;;12.90;87.00;;;;;;4899869;29;20077;-77
2022/09/18 09:18:30;;;;;;;0.10;0.10;;;13.00;87.10;;;;;;4900620;29;20049;-78
2022/09/18 09:21:03;;;;;;;0.30;0.10;;;13.10;87.10;;;;;;4903897;29;20049;-77
2022/09/18 09:23:55;;;;;;;0.00;0.00;;;13.10;86.90;;;;;;4903313;29;20051;-78
2022/09/18 09:26:23;;;;;;;0.22;0.10;;;13.20;86.90;;;;;;4903041;29;20053;-78
2022/09/18 09:29:02;;;;;;;0.10;0.10;;;13.30;86.80;;;;;;4914395;29;20064;-77
2022/09/18 09:31:38;;;;;;;0.10;0.10;;;13.40;86.70;;;;;;4901032;29;20084;-77
2022/09/18 09:34:15;;;;;;;0.10;0.10;;;13.40;87.30;;;;;;4909832;29;20076;-78
2022/09/18 09:36:45;;;;;;;0.10;0.10;;;13.30;86.50;;;;;;4887359;29;20037;-78
2022/09/18 09:39:26;;;;;;;0.30;0.10;;;13.40;86.50;;;;;;4899175;29;20120;-77
2022/09/18 09:42:22;;;;;;;0.20;0.20;;;13.50;86.70;;;;;;4909659;29;20381;-77
2022/09/18 09:44:57;;;;;;;0.10;0.10;;;13.60;86.70;;;;;;4902997;29;20077;-78
2022/09/18 09:47:41;;;;;;;0.25;0.20;;;13.50;86.70;;;;;;4908848;29;20064;-77
2022/09/18 09:50:43;;;;;;;0.40;0.20;;;13.40;86.70;;;;;;4884560;29;20021;-77
2022/09/18 09:53:11;;;;;;;0.10;0.10;;;13.40;86.90;;;;;;4897311;29;20041;-79
2022/09/18 09:55:49;;;;;;;0.08;0.08;;;13.40;86.80;;;;;;4884913;29;20067;-77
2022/09/18 09:58:47;;;;;;;0.20;0.20;;;13.60;87.00;;;;;;4903643;29;20132;-78
2022/09/18 10:01:44;;;;;;;0.10;0.10;;;13.40;87.00;;;;;;4899604;29;20099;-78
2022/09/18 10:04:36;;;;;;;0.10;0.10;;;13.50;87.00;;;;;;4901003;29;20072;-79
2022/09/18 10:07:16;;;;;;;0.20;0.20;;;13.60;87.00;;;;;;4888132;29;20476;-78
2022/09/18 10:10:00;;;;;;;0.10;0.10;;;13.60;86.80;;;;;;4885164;29;20045;-78
2022/09/18 10:12:44;;;;;;;0.10;0.10;;;13.70;86.70;;;;;;4866721;29;20085;-79
2022/09/18 10:15:39;;;;;;;0.80;0.20;;;13.80;86.60;;;;;;4900415;29;20051;-78
2022/09/18 10:18:25;;;;;;;0.10;0.10;;;13.90;86.50;;;;;;4885257;29;20051;-78
2022/09/18 10:20:55;;;;;;;0.75;0.20;;;13.80;86.50;;;;;;4899143;29;20115;-78
2022/09/18 10:23:40;;;;;;;0.52;0.20;;;13.90;86.40;;;;;;4882389;29;20399;-78
2022/09/18 10:26:09;;;;;;;0.28;0.15;;;13.80;86.50;;;;;;4883677;29;20055;-78
2022/09/18 10:28:35;;;;;;;0.68;0.40;;;13.80;86.50;;;;;;4901489;29;20063;-78
2022/09/18 10:31:04;;;;;;;0.30;0.20;;;13.70;86.70;;;;;;4883957;29;20061;-78
2022/09/18 10:33:47;;;;;;;0.50;0.20;;;13.80;86.80;;;;;;4881509;29;20376;-77
2022/09/18 10:36:21;;;;;;;0.20;0.20;;;13.80;86.80;;;;;;4882585;29;20039;-78
2022/09/18 10:38:47;;;;;;;0.52;0.20;;;13.80;87.00;;;;;;4881228;29;20060;-78
2022/09/18 10:41:27;;;;;;;0.20;0.20;;;13.80;86.90;;;;;;4898318;29;20032;-78
2022/09/18 10:44:24;;;;;;;0.20;0.20;;;13.90;86.80;;;;;;4897994;29;20068;-78
2022/09/18 10:47:08;;;;;;;0.17;0.17;;;13.90;86.60;;;;;;4898386;29;20051;-77
2022/09/18 10:49:40;;;;;;;0.20;0.20;;;13.90;86.50;;;;;;4883737;29;20068;-77
2022/09/18 10:52:28;;;;;;;0.20;0.20;;;14.00;86.60;;;;;;4898612;29;20040;-78
2022/09/18 10:55:12;;;;;;;0.10;0.10;;;13.90;86.60;;;;;;4881170;29;20033;-77
2022/09/18 10:57:43;;;;;;;0.20;0.20;;;13.90;86.70;;;;;;4898558;29;20064;-77
2022/09/18 11:00:33;;;;;;;0.10;0.10;;;13.80;86.70;;;;;;4897957;29;20044;-77
2022/09/18 11:03:24;;;;;;;0.47;0.20;;;13.90;86.80;;;;;;4883176;29;20043;-77
2022/09/18 11:05:53;;;;;;;;;;;13.90;86.80;;;;;;4885316;29;20041;-78
2022/09/18 11:08:23;;;;;;;0.75;0.25;;;13.80;86.50;;;;;;4881586;29;19919;-78
2022/09/18 11:10:54;;;;;;;0.75;0.20;;;13.80;86.60;;;;;;4881046;29;20100;-78
2022/09/18 11:13:23;;;;;;;1.05;0.20;;;13.80;86.70;;;;;;4898162;29;20028;-78
2022/09/18 11:15:54;;;;;;;0.45;0.17;;;13.80;86.80;;;;;;4898246;29;20036;-78
2022/09/18 11:18:22;;;;;;;1.35;0.20;;;13.80;86.80;;;;;;4881373;29;20472;-77
2022/09/18 11:20:49;;;;;;;0.30;0.20;;;13.80;86.80;;;;;;4897937;29;20507;-78
2022/09/18 11:23:31;;;;;;;0.32;0.30;;;13.80;86.70;;;;;;4897951;29;20045;-78
2022/09/18 11:26:14;;;;;;;0.40;0.28;;;13.80;86.60;;;;;;4897672;29;20101;-77
2022/09/18 11:28:40;;;;;;;0.10;0.10;;;13.80;86.50;;;;;;4897472;29;20104;-77
2022/09/18 11:31:18;;;;;;;1.05;0.43;;;13.80;86.50;;;;;;4897354;29;20032;-77
2022/09/18 11:33:52;;;;;;;0.10;0.10;;;13.70;86.60;;;;;;4897859;29;20142;-77
2022/09/18 11:36:31;;;;;;;0.30;0.20;;;13.80;86.60;;;;;;4898562;29;20041;-76
2022/09/18 11:38:59;;;;;;;0.10;0.10;;;13.80;86.70;;;;;;4897405;29;20056;-75
2022/09/18 11:41:32;;;;;;;0.30;0.20;;;13.80;86.50;;;;;;4897259;29;20052;-75
2022/09/18 11:44:03;;;;;;;0.25;0.20;;;13.80;86.60;;;;;;4897389;29;20602;-77
2022/09/18 11:46:58;;;;;;;0.10;0.10;;;13.80;86.50;;;;;;4865307;29;20041;-78
2022/09/18 11:49:30;;;;;;;0.10;0.10;;;13.80;86.50;;;;;;4880417;29;20052;-78
2022/09/18 11:52:02;;;;;;;0.20;0.20;;;13.80;86.50;;;;;;4897278;29;20476;-76
2022/09/18 11:54:42;;;;;;;0.30;0.15;;;13.80;86.60;;;;;;4897311;29;20041;-77
2022/09/18 11:57:20;;;;;;;0.15;0.15;;;13.80;86.70;;;;;;4896420;29;20514;-77
2022/09/18 11:59:53;;;;;;;0.45;0.20;;;13.80;86.70;;;;;;4865326;29;20041;-76
2022/09/18 12:02:42;;;;;;;0.25;0.20;;;13.70;86.70;;;;;;4896936;29;20543;-76
2022/09/18 12:05:17;;;;;;;0.10;0.10;;;13.70;86.80;;;;;;4897183;29;20044;-77
2022/09/18 12:08:00;;;;;;;0.22;0.20;;;13.60;86.90;;;;;;4880841;29;20052;-77
2022/09/18 12:10:45;;;;;;;0.43;0.20;;;13.60;87.00;;;;;;4880230;29;20041;-77
2022/09/18 12:13:32;;;;;;;0.10;0.10;;;13.50;86.90;;;;;;4882408;29;20032;-77
2022/09/18 12:16:13;;;;;;;0.10;0.10;;;13.60;87.00;;;;;;4850458;29;20028;-77
2022/09/18 12:18:50;;;;;;;0.28;0.28;;;13.60;87.00;;;;;;4865825;29;20394;-78
2022/09/18 12:21:22;;;;;;;1.05;0.20;;;13.50;87.00;;;;;;4849786;29;20078;-76
2022/09/18 12:23:47;;;;;;;0.10;0.10;;;13.60;87.00;;;;;;4897114;29;20055;-75
2022/09/18 12:26:38;;;;;;;0.75;0.20;;;13.60;87.00;;;;;;4880212;29;20087;-75
2022/09/18 12:29:34;;;;;;;0.32;0.20;;;13.60;87.00;;;;;;4896992;29;20056;-75
2022/09/18 12:32:27;;;;;;;0.10;0.10;;;13.60;86.90;;;;;;4879892;29;20048;-75
2022/09/18 12:35:07;;;;;;;0.17;0.10;;;13.70;86.90;;;;;;4896449;29;20072;-76
2022/09/18 12:37:47;;;;;;;0.10;0.10;;;13.70;86.90;;;;;;4896548;29;20055;-77
2022/09/18 12:40:41;;;;;;;0.20;0.20;;;13.60;86.80;;;;;;4881284;29;20476;-75
2022/09/18 12:43:26;;;;;;;0.47;0.10;;;13.60;87.00;;;;;;4896394;29;20115;-75
2022/09/18 12:46:14;;;;;;;0.52;0.22;;;13.50;87.00;;;;;;4896313;29;20798;-76
2022/09/18 12:49:09;;;;;;;0.52;0.20;;;13.60;87.10;;;;;;4896234;29;20049;-76
2022/09/18 12:51:44;;;;;;;0.20;0.20;;;13.60;87.00;;;;;;4879799;29;20079;-76
2022/09/18 12:54:41;;;;;;;0.35;0.20;;;13.60;86.90;;;;;;4897189;29;20037;-75
2022/09/18 12:57:38;;;;;;;1.08;0.10;;;13.60;86.90;;;;;;4910094;29;20040;-76
2022/09/18 13:00:11;;;;;;;0.20;0.17;;;13.60;86.90;;;;;;4910579;29;20047;-77
2022/09/18 13:02:50;;;;;;;0.80;0.20;;;13.60;86.90;;;;;;4892041;29;20368;-76
2022/09/18 13:05:25;;;;;;;0.20;0.10;;;13.60;86.90;;;;;;4904996;29;20029;-76
2022/09/18 13:08:09;;;;;;;0.35;0.20;;;13.50;86.90;;;;;;4888792;29;20123;-77
2022/09/18 13:10:42;;;;;;;0.10;0.10;;;13.60;87.10;;;;;;4896002;29;20040;-77
2022/09/18 13:13:36;;;;;;;0.40;0.20;;;13.60;87.00;;;;;;4897480;29;20040;-77
2022/09/18 13:16:08;;;;;;;0.10;0.10;;;13.50;87.00;;;;;;4915714;29;20020;-76
2022/09/18 13:18:51;;;;;;;1.20;0.25;;;13.50;87.00;;;;;;4901766;29;20055;-76